sensor_id;sensor_type;location;lat;lon;timestamp;pressure;altitude;pressure_sealevel;temperature;humidity
64739;BME280;51175;51.186;0.276;2022-08-21T00:00:27;101260.94;;;23.03;50.74
64739;BME280;51175;51.186;0.276;2022-08-21T00:00:59;101259.03;;;23.03;50.83
64739;BME280;51175;51.186;0.276;2022-08-21T00:01:31;101258.25;;;23.03;51.12
64739;BME280;51175;51.186;0.276;2022-08-21T00:02:02;101264.44;;;23.03;51.24
64739;BME280;51175;51.186;0.276;2022-08-21T00:02:33;101263.19;;;23.01;51.06
64739;BME280;51175;51.186;0.276;2022-08-21T00:03:05;101253.19;;;23.01;51.04
64739;BME280;51175;51.186;0.276;2022-08-21T00:03:36;101250.47;;;23.01;50.83
64739;BME280;51175;51.186;0.276;2022-08-21T00:04:07;101261.25;;;23.01;51.12
64739;BME280;51175;51.186;0.276;2022-08-21T00:04:38;101260.50;;;23.01;51.09
64739;BME280;51175;51.186;0.276;2022-08-21T00:05:08;101258.09;;;22.99;51.11
64739;BME280;51175;51.186;0.276;2022-08-21T00:05:42;101260.78;;;22.99;50.91
64739;BME280;51175;51.186;0.276;2022-08-21T00:06:13;101263.47;;;22.99;51.13
64739;BME280;51175;51.186;0.276;2022-08-21T00:06:44;101258.88;;;23.00;51.02
64739;BME280;51175;51.186;0.276;2022-08-21T00:07:15;101261.91;;;22.98;50.98
64739;BME280;51175;51.186;0.276;2022-08-21T00:07:45;101264.59;;;22.98;51.24
64739;BME280;51175;51.186;0.276;2022-08-21T00:08:17;101255.72;;;22.98;50.86
64739;BME280;51175;51.186;0.276;2022-08-21T00:08:48;101265.41;;;22.99;51.05
64739;BME280;51175;51.186;0.276;2022-08-21T00:09:19;101263.81;;;22.98;51.04
64739;BME280;51175;51.186;0.276;2022-08-21T00:09:50;101259.22;;;22.98;50.91
64739;BME280;51175;51.186;0.276;2022-08-21T00:10:21;101257.66;;;22.97;51.12
64739;BME280;51175;51.186;0.276;2022-08-21T00:10:51;101258.75;;;22.96;51.07
64739;BME280;51175;51.186;0.276;2022-08-21T00:11:21;101257.66;;;22.97;51.12
64739;BME280;51175;51.186;0.276;2022-08-21T00:11:52;101264.13;;;22.96;51.17
64739;BME280;51175;51.186;0.276;2022-08-21T00:12:23;101261.44;;;22.96;51.17
64739;BME280;51175;51.186;0.276;2022-08-21T00:12:54;101254.16;;;22.97;51.31
64739;BME280;51175;51.186;0.276;2022-08-21T00:13:24;101256.06;;;22.96;51.21
64739;BME280;51175;51.186;0.276;2022-08-21T00:13:55;101256.38;;;22.94;51.09
64739;BME280;51175;51.186;0.276;2022-08-21T00:14:25;101258.31;;;22.94;51.21
64739;BME280;51175;51.186;0.276;2022-08-21T00:14:56;101250.22;;;22.94;51.18
64739;BME280;51175;51.186;0.276;2022-08-21T00:15:29;101256.38;;;22.94;51.25
64739;BME280;51175;51.186;0.276;2022-08-21T00:16:01;101251.00;;;22.94;51.18
64739;BME280;51175;51.186;0.276;2022-08-21T00:16:32;101255.59;;;22.94;51.25
64739;BME280;51175;51.186;0.276;2022-08-21T00:17:04;101254.81;;;22.93;51.17
64739;BME280;51175;51.186;0.276;2022-08-21T00:17:35;101249.44;;;22.93;51.25
64739;BME280;51175;51.186;0.276;2022-08-21T00:18:07;101259.72;;;22.91;51.11
64739;BME280;51175;51.186;0.276;2022-08-21T00:18:37;101251.66;;;22.91;51.29
64739;BME280;51175;51.186;0.276;2022-08-21T00:19:08;101248.94;;;22.91;51.42
64739;BME280;51175;51.186;0.276;2022-08-21T00:19:38;101248.94;;;22.91;51.41
64739;BME280;51175;51.186;0.276;2022-08-21T00:20:11;101248.19;;;22.91;51.36
64739;BME280;51175;51.186;0.276;2022-08-21T00:20:43;101248.19;;;22.91;51.06
64739;BME280;51175;51.186;0.276;2022-08-21T00:21:14;101250.88;;;22.91;51.33
64739;BME280;51175;51.186;0.276;2022-08-21T00:21:44;101247.38;;;22.90;51.54
64739;BME280;51175;51.186;0.276;2022-08-21T00:22:15;101250.06;;;22.90;51.21
64739;BME280;51175;51.186;0.276;2022-08-21T00:22:45;101256.25;;;22.91;51.37
64739;BME280;51175;51.186;0.276;2022-08-21T00:23:16;101253.91;;;22.89;51.46
64739;BME280;51175;51.186;0.276;2022-08-21T00:23:47;101251.19;;;22.89;51.16
64739;BME280;51175;51.186;0.276;2022-08-21T00:24:18;101245.81;;;22.89;51.20
64739;BME280;51175;51.186;0.276;2022-08-21T00:24:49;101245.81;;;22.89;51.14
64739;BME280;51175;51.186;0.276;2022-08-21T00:25:20;101245.81;;;22.89;51.38
64739;BME280;51175;51.186;0.276;2022-08-21T00:25:50;101245.00;;;22.89;51.26
64739;BME280;51175;51.186;0.276;2022-08-21T00:26:21;101240.44;;;22.89;51.36
64739;BME280;51175;51.186;0.276;2022-08-21T00:26:52;101242.31;;;22.89;51.41
64739;BME280;51175;51.186;0.276;2022-08-21T00:27:22;101242.31;;;22.89;51.50
64739;BME280;51175;51.186;0.276;2022-08-21T00:27:54;101246.91;;;22.88;51.22
64739;BME280;51175;51.186;0.276;2022-08-21T00:28:25;101240.75;;;22.88;51.50
64739;BME280;51175;51.186;0.276;2022-08-21T00:28:55;101239.97;;;22.87;51.36
64739;BME280;51175;51.186;0.276;2022-08-21T00:29:26;101248.03;;;22.87;51.51
64739;BME280;51175;51.186;0.276;2022-08-21T00:29:56;101241.06;;;22.86;51.38
64739;BME280;51175;51.186;0.276;2022-08-21T00:30:27;101244.53;;;22.87;51.24
64739;BME280;51175;51.186;0.276;2022-08-21T00:30:58;101238.38;;;22.86;51.22
64739;BME280;51175;51.186;0.276;2022-08-21T00:31:29;101241.06;;;22.86;51.79
64739;BME280;51175;51.186;0.276;2022-08-21T00:31:59;101245.66;;;22.86;51.49
64739;BME280;51175;51.186;0.276;2022-08-21T00:32:30;101238.72;;;22.85;51.50
64739;BME280;51175;51.186;0.276;2022-08-21T00:33:00;101242.97;;;22.86;51.38
64739;BME280;51175;51.186;0.276;2022-08-21T00:33:31;101245.66;;;22.86;51.28
64739;BME280;51175;51.186;0.276;2022-08-21T00:34:02;101243.31;;;22.84;51.42
64739;BME280;51175;51.186;0.276;2022-08-21T00:34:33;101242.97;;;22.86;51.28
64739;BME280;51175;51.186;0.276;2022-08-21T00:35:05;101250.25;;;22.85;51.30
64739;BME280;51175;51.186;0.276;2022-08-21T00:35:39;101246.00;;;22.84;51.36
64739;BME280;51175;51.186;0.276;2022-08-21T00:36:11;101253.28;;;22.84;51.33
64739;BME280;51175;51.186;0.276;2022-08-21T00:36:41;101249.81;;;22.83;51.35
64739;BME280;51175;51.186;0.276;2022-08-21T00:37:12;101250.59;;;22.84;51.28
64739;BME280;51175;51.186;0.276;2022-08-21T00:37:43;101252.50;;;22.83;51.29
64739;BME280;51175;51.186;0.276;2022-08-21T00:38:13;101241.72;;;22.83;51.50
64739;BME280;51175;51.186;0.276;2022-08-21T00:38:44;101247.88;;;22.84;51.42
64739;BME280;51175;51.186;0.276;2022-08-21T00:39:17;101246.31;;;22.82;51.45
64739;BME280;51175;51.186;0.276;2022-08-21T00:39:47;101247.44;;;22.81;51.49
64739;BME280;51175;51.186;0.276;2022-08-21T00:40:24;101241.25;;;22.81;51.45
64739;BME280;51175;51.186;0.276;2022-08-21T00:40:57;101248.53;;;22.80;51.56
64739;BME280;51175;51.186;0.276;2022-08-21T00:41:28;101246.63;;;22.81;51.53
64739;BME280;51175;51.186;0.276;2022-08-21T00:41:59;101245.84;;;22.80;51.39
64739;BME280;51175;51.186;0.276;2022-08-21T00:42:29;101248.53;;;22.80;51.54
64739;BME280;51175;51.186;0.276;2022-08-21T00:43:02;101246.97;;;22.79;51.33
64739;BME280;51175;51.186;0.276;2022-08-21T00:43:35;101250.47;;;22.80;51.49
64739;BME280;51175;51.186;0.276;2022-08-21T00:44:08;101249.66;;;22.79;51.45
64739;BME280;51175;51.186;0.276;2022-08-21T00:44:40;101249.66;;;22.79;51.51
64739;BME280;51175;51.186;0.276;2022-08-21T00:45:12;101251.88;;;22.77;51.59
64739;BME280;51175;51.186;0.276;2022-08-21T00:45:43;101250.00;;;22.78;51.61
64739;BME280;51175;51.186;0.276;2022-08-21T00:46:14;101253.00;;;22.76;51.42
64739;BME280;51175;51.186;0.276;2022-08-21T00:46:44;101257.25;;;22.77;51.40
64739;BME280;51175;51.186;0.276;2022-08-21T00:47:16;101246.81;;;22.76;51.61
64739;BME280;51175;51.186;0.276;2022-08-21T00:47:48;101254.56;;;22.77;51.49
64739;BME280;51175;51.186;0.276;2022-08-21T00:48:20;101257.59;;;22.76;51.67
64739;BME280;51175;51.186;0.276;2022-08-21T00:48:50;101246.81;;;22.76;51.67
64739;BME280;51175;51.186;0.276;2022-08-21T00:49:20;101251.44;;;22.75;51.45
64739;BME280;51175;51.186;0.276;2022-08-21T00:49:51;101258.38;;;22.76;51.59
64739;BME280;51175;51.186;0.276;2022-08-21T00:50:22;101253.34;;;22.75;51.59
64739;BME280;51175;51.186;0.276;2022-08-21T00:50:59;101257.16;;;22.74;51.67
64739;BME280;51175;51.186;0.276;2022-08-21T00:51:50;101251.75;;;22.74;51.70
64739;BME280;51175;51.186;0.276;2022-08-21T00:52:29;101259.84;;;22.74;51.83
64739;BME280;51175;51.186;0.276;2022-08-21T00:53:03;101261.72;;;22.73;51.46
64739;BME280;51175;51.186;0.276;2022-08-21T00:53:37;101253.97;;;22.72;51.58
64739;BME280;51175;51.186;0.276;2022-08-21T00:54:10;101253.19;;;22.71;51.45
64739;BME280;51175;51.186;0.276;2022-08-21T00:54:43;101256.66;;;22.72;51.49
64739;BME280;51175;51.186;0.276;2022-08-21T00:55:14;101253.19;;;22.71;51.54
64739;BME280;51175;51.186;0.276;2022-08-21T00:55:45;101255.09;;;22.71;51.84
64739;BME280;51175;51.186;0.276;2022-08-21T00:56:16;101255.09;;;22.71;51.82
64739;BME280;51175;51.186;0.276;2022-08-21T00:56:51;101254.31;;;22.70;51.82
64739;BME280;51175;51.186;0.276;2022-08-21T00:57:30;101252.41;;;22.71;51.64
64739;BME280;51175;51.186;0.276;2022-08-21T00:58:03;101261.56;;;22.69;51.73
64739;BME280;51175;51.186;0.276;2022-08-21T00:58:37;101254.31;;;22.70;51.77
64739;BME280;51175;51.186;0.276;2022-08-21T00:59:09;101253.81;;;22.68;51.75
64739;BME280;51175;51.186;0.276;2022-08-21T00:59:41;101256.53;;;22.68;51.84
64739;BME280;51175;51.186;0.276;2022-08-21T01:00:17;101259.22;;;22.68;51.79
64739;BME280;51175;51.186;0.276;2022-08-21T01:00:51;101253.81;;;22.68;51.86
64739;BME280;51175;51.186;0.276;2022-08-21T01:01:22;101257.66;;;22.67;51.94
64739;BME280;51175;51.186;0.276;2022-08-21T01:01:52;101252.25;;;22.67;51.68
64739;BME280;51175;51.186;0.276;2022-08-21T01:02:23;101256.84;;;22.66;51.75
64739;BME280;51175;51.186;0.276;2022-08-21T01:02:57;101258.75;;;22.66;51.92
64739;BME280;51175;51.186;0.276;2022-08-21T01:03:28;101256.03;;;22.66;51.97
64739;BME280;51175;51.186;0.276;2022-08-21T01:03:59;101250.97;;;22.64;51.99
64739;BME280;51175;51.186;0.276;2022-08-21T01:04:29;101246.41;;;22.65;51.80
64739;BME280;51175;51.186;0.276;2022-08-21T01:05:00;101250.97;;;22.64;51.96
64739;BME280;51175;51.186;0.276;2022-08-21T01:05:32;101256.38;;;22.64;51.98
64739;BME280;51175;51.186;0.276;2022-08-21T01:06:04;101251.78;;;22.65;51.88
64739;BME280;51175;51.186;0.276;2022-08-21T01:06:34;101255.59;;;22.64;51.81
64739;BME280;51175;51.186;0.276;2022-08-21T01:07:06;101246.72;;;22.63;51.83
64739;BME280;51175;51.186;0.276;2022-08-21T01:07:37;101247.53;;;22.64;51.81
64739;BME280;51175;51.186;0.276;2022-08-21T01:08:08;101248.63;;;22.63;51.76
64739;BME280;51175;51.186;0.276;2022-08-21T01:08:41;101244.03;;;22.63;51.90
64739;BME280;51175;51.186;0.276;2022-08-21T01:09:13;101253.22;;;22.62;51.86
64739;BME280;51175;51.186;0.276;2022-08-21T01:09:46;101247.53;;;22.64;51.90
64739;BME280;51175;51.186;0.276;2022-08-21T01:10:17;101245.94;;;22.63;52.09
64739;BME280;51175;51.186;0.276;2022-08-21T01:10:49;101247.06;;;22.62;51.92
64739;BME280;51175;51.186;0.276;2022-08-21T01:11:20;101247.06;;;22.62;52.20
64739;BME280;51175;51.186;0.276;2022-08-21T01:11:50;101248.94;;;22.61;51.77
64739;BME280;51175;51.186;0.276;2022-08-21T01:12:21;101251.63;;;22.61;52.07
64739;BME280;51175;51.186;0.276;2022-08-21T01:12:52;101250.88;;;22.61;51.99
64739;BME280;51175;51.186;0.276;2022-08-21T01:13:26;101250.53;;;22.62;51.72
64739;BME280;51175;51.186;0.276;2022-08-21T01:13:57;101253.56;;;22.61;51.85
64739;BME280;51175;51.186;0.276;2022-08-21T01:14:28;101248.16;;;22.61;52.03
64739;BME280;51175;51.186;0.276;2022-08-21T01:14:58;101254.31;;;22.61;51.99
64739;BME280;51175;51.186;0.276;2022-08-21T01:15:32;101248.16;;;22.61;51.67
64739;BME280;51175;51.186;0.276;2022-08-21T01:16:05;101243.09;;;22.59;51.96
64739;BME280;51175;51.186;0.276;2022-08-21T01:16:40;101240.41;;;22.59;51.85
64739;BME280;51175;51.186;0.276;2022-08-21T01:17:14;101243.09;;;22.59;51.93
64739;BME280;51175;51.186;0.276;2022-08-21T01:17:46;101243.41;;;22.57;51.86
64739;BME280;51175;51.186;0.276;2022-08-21T01:18:17;101235.31;;;22.57;51.86
64739;BME280;51175;51.186;0.276;2022-08-21T01:18:49;101239.91;;;22.57;51.81
64739;BME280;51175;51.186;0.276;2022-08-21T01:19:20;101234.84;;;22.55;51.71
64739;BME280;51175;51.186;0.276;2022-08-21T01:19:52;101232.97;;;22.56;51.88
64739;BME280;51175;51.186;0.276;2022-08-21T01:20:24;101235.66;;;22.56;51.93
64739;BME280;51175;51.186;0.276;2022-08-21T01:21:10;101234.06;;;22.55;51.89
64739;BME280;51175;51.186;0.276;2022-08-21T01:21:42;101224.41;;;22.54;51.77
64739;BME280;51175;51.186;0.276;2022-08-21T01:22:13;101230.91;;;22.53;51.74
64739;BME280;51175;51.186;0.276;2022-08-21T01:22:43;101235.50;;;22.52;51.85
64739;BME280;51175;51.186;0.276;2022-08-21T01:23:13;101230.13;;;22.52;51.92
64739;BME280;51175;51.186;0.276;2022-08-21T01:23:48;101226.63;;;22.52;51.80
64739;BME280;51175;51.186;0.276;2022-08-21T01:24:19;101228.56;;;22.51;51.96
64739;BME280;51175;51.186;0.276;2022-08-21T01:24:50;101221.56;;;22.50;51.74
64739;BME280;51175;51.186;0.276;2022-08-21T01:25:20;101227.75;;;22.51;51.82
64739;BME280;51175;51.186;0.276;2022-08-21T01:25:50;101221.13;;;22.48;51.95
64739;BME280;51175;51.186;0.276;2022-08-21T01:26:25;101226.50;;;22.48;51.82
64739;BME280;51175;51.186;0.276;2022-08-21T01:26:56;101229.19;;;22.48;51.84
64739;BME280;51175;51.186;0.276;2022-08-21T01:27:26;101226.50;;;22.48;51.87
64739;BME280;51175;51.186;0.276;2022-08-21T01:27:59;101227.28;;;22.49;51.86
64739;BME280;51175;51.186;0.276;2022-08-21T01:28:36;101219.19;;;22.49;52.00
64739;BME280;51175;51.186;0.276;2022-08-21T01:29:59;101231.88;;;22.48;51.97
64739;BME280;51175;51.186;0.276;2022-08-21T01:30:34;101223.81;;;22.48;52.01
64739;BME280;51175;51.186;0.276;2022-08-21T01:31:07;101224.91;;;22.47;51.77
64739;BME280;51175;51.186;0.276;2022-08-21T01:31:40;101218.75;;;22.47;51.97
64739;BME280;51175;51.186;0.276;2022-08-21T01:32:15;101216.06;;;22.47;51.94
64739;BME280;51175;51.186;0.276;2022-08-21T01:32:46;101226.03;;;22.46;52.03
64739;BME280;51175;51.186;0.276;2022-08-21T01:33:19;101231.41;;;22.46;52.00
64739;BME280;51175;51.186;0.276;2022-08-21T01:33:52;101226.03;;;22.46;52.05
64739;BME280;51175;51.186;0.276;2022-08-21T01:34:23;101227.94;;;22.45;51.90
64739;BME280;51175;51.186;0.276;2022-08-21T01:34:53;101224.13;;;22.47;52.00
64739;BME280;51175;51.186;0.276;2022-08-21T01:35:24;101220.66;;;22.46;52.15
64739;BME280;51175;51.186;0.276;2022-08-21T01:35:54;101226.03;;;22.46;52.07
64739;BME280;51175;51.186;0.276;2022-08-21T01:36:25;101227.94;;;22.45;52.02
64739;BME280;51175;51.186;0.276;2022-08-21T01:36:56;101227.94;;;22.45;51.85
64739;BME280;51175;51.186;0.276;2022-08-21T01:37:26;101222.53;;;22.45;52.17
64739;BME280;51175;51.186;0.276;2022-08-21T01:37:57;101227.16;;;22.45;52.04
64739;BME280;51175;51.186;0.276;2022-08-21T01:38:28;101226.34;;;22.44;52.01
64739;BME280;51175;51.186;0.276;2022-08-21T01:38:59;101225.56;;;22.44;52.07
64739;BME280;51175;51.186;0.276;2022-08-21T01:39:30;101226.34;;;22.44;51.98
64739;BME280;51175;51.186;0.276;2022-08-21T01:40:01;101228.25;;;22.44;51.89
64739;BME280;51175;51.186;0.276;2022-08-21T01:40:31;101228.25;;;22.44;51.96
64739;BME280;51175;51.186;0.276;2022-08-21T01:41:02;101229.84;;;22.45;52.21
64739;BME280;51175;51.186;0.276;2022-08-21T01:41:33;101227.47;;;22.43;52.06
64739;BME280;51175;51.186;0.276;2022-08-21T01:42:04;101227.47;;;22.43;51.97
64739;BME280;51175;51.186;0.276;2022-08-21T01:42:35;101230.94;;;22.44;52.05
64739;BME280;51175;51.186;0.276;2022-08-21T01:43:05;101232.84;;;22.43;52.29
64739;BME280;51175;51.186;0.276;2022-08-21T01:43:36;101234.75;;;22.43;52.10
64739;BME280;51175;51.186;0.276;2022-08-21T01:44:06;101233.19;;;22.42;52.04
64739;BME280;51175;51.186;0.276;2022-08-21T01:44:38;101237.44;;;22.43;52.17
64739;BME280;51175;51.186;0.276;2022-08-21T01:45:10;101238.56;;;22.42;51.92
64739;BME280;51175;51.186;0.276;2022-08-21T01:45:40;101243.16;;;22.41;52.26
64739;BME280;51175;51.186;0.276;2022-08-21T01:46:11;101238.56;;;22.42;52.08
64739;BME280;51175;51.186;0.276;2022-08-21T01:46:42;101231.59;;;22.41;51.98
64739;BME280;51175;51.186;0.276;2022-08-21T01:47:14;101240.78;;;22.40;51.83
64739;BME280;51175;51.186;0.276;2022-08-21T01:47:45;101240.78;;;22.40;52.02
64739;BME280;51175;51.186;0.276;2022-08-21T01:48:16;101240.78;;;22.40;52.16
64739;BME280;51175;51.186;0.276;2022-08-21T01:48:46;101246.16;;;22.40;52.04
64739;BME280;51175;51.186;0.276;2022-08-21T01:49:17;101241.91;;;22.39;52.03
64739;BME280;51175;51.186;0.276;2022-08-21T01:49:47;101241.91;;;22.39;52.17
64739;BME280;51175;51.186;0.276;2022-08-21T01:50:19;101241.09;;;22.38;51.78
64739;BME280;51175;51.186;0.276;2022-08-21T01:50:50;101234.91;;;22.38;51.96
64739;BME280;51175;51.186;0.276;2022-08-21T01:51:21;101236.03;;;22.37;52.01
64739;BME280;51175;51.186;0.276;2022-08-21T01:51:52;101239.53;;;22.37;52.19
64739;BME280;51175;51.186;0.276;2022-08-21T01:52:22;101236.03;;;22.37;52.02
64739;BME280;51175;51.186;0.276;2022-08-21T01:52:53;101238.72;;;22.37;51.86
64739;BME280;51175;51.186;0.276;2022-08-21T01:53:24;101232.56;;;22.36;52.04
64739;BME280;51175;51.186;0.276;2022-08-21T01:53:54;101229.88;;;22.36;51.98
64739;BME280;51175;51.186;0.276;2022-08-21T01:54:24;101241.75;;;22.35;52.06
64739;BME280;51175;51.186;0.276;2022-08-21T01:54:55;101237.16;;;22.36;52.07
64739;BME280;51175;51.186;0.276;2022-08-21T01:55:25;101239.38;;;22.33;52.00
64739;BME280;51175;51.186;0.276;2022-08-21T01:55:56;101242.06;;;22.33;52.18
64739;BME280;51175;51.186;0.276;2022-08-21T01:56:27;101242.06;;;22.33;52.18
64739;BME280;51175;51.186;0.276;2022-08-21T01:56:59;101233.19;;;22.33;51.92
64739;BME280;51175;51.186;0.276;2022-08-21T01:57:30;101240.47;;;22.32;51.98
64739;BME280;51175;51.186;0.276;2022-08-21T01:58:01;101235.09;;;22.32;52.01
64739;BME280;51175;51.186;0.276;2022-08-21T01:58:31;101235.09;;;22.32;52.14
64739;BME280;51175;51.186;0.276;2022-08-21T01:59:03;101239.69;;;22.32;52.07
64739;BME280;51175;51.186;0.276;2022-08-21T01:59:33;101231.94;;;22.30;51.82
64739;BME280;51175;51.186;0.276;2022-08-21T02:00:07;101240.78;;;22.31;52.02
64739;BME280;51175;51.186;0.276;2022-08-21T02:00:38;101237.34;;;22.30;52.22
64739;BME280;51175;51.186;0.276;2022-08-21T02:01:09;101238.09;;;22.31;51.95
64739;BME280;51175;51.186;0.276;2022-08-21T02:01:40;101239.22;;;22.30;52.09
64739;BME280;51175;51.186;0.276;2022-08-21T02:02:11;101241.13;;;22.29;52.21
64739;BME280;51175;51.186;0.276;2022-08-21T02:02:42;101240.34;;;22.29;52.26
64739;BME280;51175;51.186;0.276;2022-08-21T02:03:12;101238.41;;;22.29;52.11
64739;BME280;51175;51.186;0.276;2022-08-21T02:03:43;101241.13;;;22.29;51.93
64739;BME280;51175;51.186;0.276;2022-08-21T02:04:13;101239.53;;;22.28;52.21
64739;BME280;51175;51.186;0.276;2022-08-21T02:04:44;101240.34;;;22.29;52.71
64739;BME280;51175;51.186;0.276;2022-08-21T02:05:14;101240.34;;;22.29;51.96
64739;BME280;51175;51.186;0.276;2022-08-21T02:05:45;101238.75;;;22.28;52.03
64739;BME280;51175;51.186;0.276;2022-08-21T02:06:16;101234.16;;;22.28;52.10
64739;BME280;51175;51.186;0.276;2022-08-21T02:06:48;101244.13;;;22.28;52.15
64739;BME280;51175;51.186;0.276;2022-08-21T02:07:18;101241.44;;;22.28;52.14
64739;BME280;51175;51.186;0.276;2022-08-21T02:07:51;101237.19;;;22.27;51.92
64739;BME280;51175;51.186;0.276;2022-08-21T02:08:22;101242.56;;;22.27;52.06
64739;BME280;51175;51.186;0.276;2022-08-21T02:08:56;101235.28;;;22.27;52.31
64739;BME280;51175;51.186;0.276;2022-08-21T02:09:26;101243.69;;;22.26;52.04
64739;BME280;51175;51.186;0.276;2022-08-21T02:09:57;101244.78;;;22.25;52.06
64739;BME280;51175;51.186;0.276;2022-08-21T02:10:30;101245.56;;;22.25;51.98
64739;BME280;51175;51.186;0.276;2022-08-21T02:11:00;101238.63;;;22.24;52.08
64739;BME280;51175;51.186;0.276;2022-08-21T02:11:32;101247.47;;;22.25;52.06
64739;BME280;51175;51.186;0.276;2022-08-21T02:12:02;101241.31;;;22.24;51.90
64739;BME280;51175;51.186;0.276;2022-08-21T02:12:33;101243.19;;;22.24;52.18
64739;BME280;51175;51.186;0.276;2022-08-21T02:13:04;101242.41;;;22.23;52.15
64739;BME280;51175;51.186;0.276;2022-08-21T02:13:35;101238.13;;;22.22;52.25
64739;BME280;51175;51.186;0.276;2022-08-21T02:14:15;101240.03;;;22.22;52.23
64739;BME280;51175;51.186;0.276;2022-08-21T02:14:45;101238.13;;;22.22;52.03
64739;BME280;51175;51.186;0.276;2022-08-21T02:15:16;101240.03;;;22.22;52.19
64739;BME280;51175;51.186;0.276;2022-08-21T02:15:47;101240.34;;;22.20;52.30
64739;BME280;51175;51.186;0.276;2022-08-21T02:16:17;101236.91;;;22.19;52.16
64739;BME280;51175;51.186;0.276;2022-08-21T02:16:48;101236.91;;;22.19;52.10
64739;BME280;51175;51.186;0.276;2022-08-21T02:17:18;101234.97;;;22.20;52.11
64739;BME280;51175;51.186;0.276;2022-08-21T02:17:52;101244.16;;;22.19;52.12
64739;BME280;51175;51.186;0.276;2022-08-21T02:18:23;101244.16;;;22.19;52.00
64739;BME280;51175;51.186;0.276;2022-08-21T02:18:53;101246.06;;;22.18;52.13
64739;BME280;51175;51.186;0.276;2022-08-21T02:19:23;101242.59;;;22.18;52.05
64739;BME280;51175;51.186;0.276;2022-08-21T02:19:54;101242.59;;;22.18;52.03
64739;BME280;51175;51.186;0.276;2022-08-21T02:20:31;101233.72;;;22.17;52.29
64739;BME280;51175;51.186;0.276;2022-08-21T02:21:03;101238.31;;;22.17;52.13
64739;BME280;51175;51.186;0.276;2022-08-21T02:21:34;101236.75;;;22.16;52.16
64739;BME280;51175;51.186;0.276;2022-08-21T02:22:05;101237.53;;;22.16;52.38
64739;BME280;51175;51.186;0.276;2022-08-21T02:22:35;101236.75;;;22.16;52.10
64739;BME280;51175;51.186;0.276;2022-08-21T02:23:07;101235.16;;;22.15;52.10
64739;BME280;51175;51.186;0.276;2022-08-21T02:23:38;101237.84;;;22.15;52.29
64739;BME280;51175;51.186;0.276;2022-08-21T02:24:09;101235.94;;;22.15;52.23
64739;BME280;51175;51.186;0.276;2022-08-21T02:24:39;101233.56;;;22.14;52.05
64739;BME280;51175;51.186;0.276;2022-08-21T02:25:11;101237.06;;;22.14;52.35
64739;BME280;51175;51.186;0.276;2022-08-21T02:25:42;101237.06;;;22.14;52.22
64739;BME280;51175;51.186;0.276;2022-08-21T02:26:12;101235.16;;;22.15;52.12
64739;BME280;51175;51.186;0.276;2022-08-21T02:26:43;101234.38;;;22.14;52.29
64739;BME280;51175;51.186;0.276;2022-08-21T02:27:13;101233.56;;;22.14;52.24
64739;BME280;51175;51.186;0.276;2022-08-21T02:27:45;101232.78;;;22.13;52.35
64739;BME280;51175;51.186;0.276;2022-08-21T02:28:17;101230.09;;;22.13;52.11
64739;BME280;51175;51.186;0.276;2022-08-21T02:28:48;101232.78;;;22.13;52.23
64739;BME280;51175;51.186;0.276;2022-08-21T02:29:18;101233.56;;;22.14;52.32
64739;BME280;51175;51.186;0.276;2022-08-21T02:29:49;101232.00;;;22.13;52.14
64739;BME280;51175;51.186;0.276;2022-08-21T02:30:23;101233.88;;;22.12;52.32
64739;BME280;51175;51.186;0.276;2022-08-21T02:30:55;101231.19;;;22.12;52.19
64739;BME280;51175;51.186;0.276;2022-08-21T02:31:27;101231.19;;;22.12;52.43
64739;BME280;51175;51.186;0.276;2022-08-21T02:31:59;101230.44;;;22.12;52.26
64739;BME280;51175;51.186;0.276;2022-08-21T02:32:29;101232.31;;;22.11;52.48
64739;BME280;51175;51.186;0.276;2022-08-21T02:33:00;101233.13;;;22.12;52.37
64739;BME280;51175;51.186;0.276;2022-08-21T02:33:31;101235.81;;;22.12;52.37
64739;BME280;51175;51.186;0.276;2022-08-21T02:34:02;101230.44;;;22.12;52.16
64739;BME280;51175;51.186;0.276;2022-08-21T02:34:32;101229.63;;;22.11;52.29
64739;BME280;51175;51.186;0.276;2022-08-21T02:35:03;101225.38;;;22.10;52.17
64739;BME280;51175;51.186;0.276;2022-08-21T02:35:33;101228.84;;;22.11;52.38
64739;BME280;51175;51.186;0.276;2022-08-21T02:36:05;101231.53;;;22.11;52.44
64739;BME280;51175;51.186;0.276;2022-08-21T02:36:36;101233.44;;;22.10;52.46
64739;BME280;51175;51.186;0.276;2022-08-21T02:37:07;101226.47;;;22.09;52.37
64739;BME280;51175;51.186;0.276;2022-08-21T02:37:50;101229.16;;;22.09;52.25
64739;BME280;51175;51.186;0.276;2022-08-21T02:38:25;101234.53;;;22.09;52.27
64739;BME280;51175;51.186;0.276;2022-08-21T02:38:56;101231.06;;;22.08;52.49
64739;BME280;51175;51.186;0.276;2022-08-21T02:39:26;101228.69;;;22.07;52.22
64739;BME280;51175;51.186;0.276;2022-08-21T02:39:59;101225.22;;;22.06;52.22
64739;BME280;51175;51.186;0.276;2022-08-21T02:40:34;101229.47;;;22.07;52.34
64739;BME280;51175;51.186;0.276;2022-08-21T02:41:07;101232.47;;;22.06;52.05
64739;BME280;51175;51.186;0.276;2022-08-21T02:41:37;101229.78;;;22.06;52.24
64739;BME280;51175;51.186;0.276;2022-08-21T02:42:08;101227.09;;;22.06;52.14
64739;BME280;51175;51.186;0.276;2022-08-21T02:42:39;101226.34;;;22.05;52.17
64739;BME280;51175;51.186;0.276;2022-08-21T02:43:10;101217.47;;;22.05;52.19
64739;BME280;51175;51.186;0.276;2022-08-21T02:43:41;101219.34;;;22.04;52.46
64739;BME280;51175;51.186;0.276;2022-08-21T02:44:11;101225.06;;;22.03;52.53
64739;BME280;51175;51.186;0.276;2022-08-21T02:44:41;101218.59;;;22.04;52.52
64739;BME280;51175;51.186;0.276;2022-08-21T02:45:13;101215.09;;;22.03;52.61
64739;BME280;51175;51.186;0.276;2022-08-21T02:45:44;101222.38;;;22.03;52.50
64739;BME280;51175;51.186;0.276;2022-08-21T02:46:17;101218.91;;;22.02;52.27